Terminal Aerodrome Forecast
Issued by NWS Bismarck, ND

Home | Current Version | Previous Version | Text Only | Print | Product List | Glossary Off
Versions: 1 2 3 4 5 6 7 8 9 10 11 12 13 14 15

000
FTUS43 KBIS 191900 AAA
TAFISN
TAF AMD
KISN 191900Z 1919/2018 11013KT P6SM SKC
     FM200100 12004KT P6SM FEW250
     FM201400 16007KT P6SM SCT250=

USA.gov is the U.S. government's official web portal to all federal, state and local government web resources and services.